sensor_id;sensor_type;location;lat;lon;timestamp;P1;durP1;ratioP1;P2;durP2;ratioP2
23642;SDS011;11998;55.788;37.572;2023-06-26T00:00:35;15.32;;;12.32;;
23642;SDS011;11998;55.788;37.572;2023-06-26T00:01:37;15.73;;;11.18;;
23642;SDS011;11998;55.788;37.572;2023-06-26T00:02:40;12.75;;;11.45;;
23642;SDS011;11998;55.788;37.572;2023-06-26T00:03:40;14.60;;;11.10;;
23642;SDS011;11998;55.788;37.572;2023-06-26T00:04:42;15.75;;;12.15;;
23642;SDS011;11998;55.788;37.572;2023-06-26T00:05:43;16.63;;;11.23;;
23642;SDS011;11998;55.788;37.572;2023-06-26T00:06:44;16.73;;;11.73;;
23642;SDS011;11998;55.788;37.572;2023-06-26T00:07:44;18.77;;;11.38;;
23642;SDS011;11998;55.788;37.572;2023-06-26T00:08:45;13.75;;;12.25;;
23642;SDS011;11998;55.788;37.572;2023-06-26T00:09:45;16.23;;;11.43;;
23642;SDS011;11998;55.788;37.572;2023-06-26T00:10:46;13.02;;;11.60;;
23642;SDS011;11998;55.788;37.572;2023-06-26T00:11:47;17.98;;;12.57;;
23642;SDS011;11998;55.788;37.572;2023-06-26T00:12:47;14.05;;;11.60;;
23642;SDS011;11998;55.788;37.572;2023-06-26T00:13:48;14.50;;;12.07;;
23642;SDS011;11998;55.788;37.572;2023-06-26T00:14:48;13.55;;;12.15;;
23642;SDS011;11998;55.788;37.572;2023-06-26T00:15:49;14.35;;;11.93;;
23642;SDS011;11998;55.788;37.572;2023-06-26T00:16:50;13.75;;;12.18;;
23642;SDS011;11998;55.788;37.572;2023-06-26T00:17:51;16.08;;;11.85;;
23642;SDS011;11998;55.788;37.572;2023-06-26T00:18:52;14.40;;;11.20;;
23642;SDS011;11998;55.788;37.572;2023-06-26T00:19:53;15.60;;;12.05;;
23642;SDS011;11998;55.788;37.572;2023-06-26T00:20:54;13.35;;;11.55;;
23642;SDS011;11998;55.788;37.572;2023-06-26T00:21:54;16.92;;;11.75;;
23642;SDS011;11998;55.788;37.572;2023-06-26T00:22:55;14.93;;;11.93;;
23642;SDS011;11998;55.788;37.572;2023-06-26T00:23:58;17.45;;;12.40;;
23642;SDS011;11998;55.788;37.572;2023-06-26T00:24:59;17.15;;;11.35;;
23642;SDS011;11998;55.788;37.572;2023-06-26T00:25:59;14.70;;;11.95;;
23642;SDS011;11998;55.788;37.572;2023-06-26T00:27:02;17.23;;;11.75;;
23642;SDS011;11998;55.788;37.572;2023-06-26T00:28:03;15.23;;;11.63;;
23642;SDS011;11998;55.788;37.572;2023-06-26T00:29:04;13.82;;;11.98;;
23642;SDS011;11998;55.788;37.572;2023-06-26T00:30:04;16.10;;;11.98;;
23642;SDS011;11998;55.788;37.572;2023-06-26T00:31:05;18.70;;;12.82;;
23642;SDS011;11998;55.788;37.572;2023-06-26T00:32:06;13.50;;;11.88;;
23642;SDS011;11998;55.788;37.572;2023-06-26T00:33:07;14.15;;;11.88;;
23642;SDS011;11998;55.788;37.572;2023-06-26T00:34:13;16.23;;;11.70;;
23642;SDS011;11998;55.788;37.572;2023-06-26T00:35:15;14.88;;;12.07;;
23642;SDS011;11998;55.788;37.572;2023-06-26T00:36:15;14.88;;;13.15;;
23642;SDS011;11998;55.788;37.572;2023-06-26T00:37:16;16.23;;;12.40;;
23642;SDS011;11998;55.788;37.572;2023-06-26T00:38:17;14.15;;;12.25;;
23642;SDS011;11998;55.788;37.572;2023-06-26T00:39:17;13.63;;;12.30;;
23642;SDS011;11998;55.788;37.572;2023-06-26T00:40:18;15.85;;;13.00;;
23642;SDS011;11998;55.788;37.572;2023-06-26T00:41:18;16.35;;;13.45;;
23642;SDS011;11998;55.788;37.572;2023-06-26T00:42:19;15.20;;;12.82;;
23642;SDS011;11998;55.788;37.572;2023-06-26T00:43:20;16.35;;;12.60;;
23642;SDS011;11998;55.788;37.572;2023-06-26T00:44:20;18.50;;;13.18;;
23642;SDS011;11998;55.788;37.572;2023-06-26T00:45:21;18.75;;;12.80;;
23642;SDS011;11998;55.788;37.572;2023-06-26T00:46:22;17.58;;;13.48;;
23642;SDS011;11998;55.788;37.572;2023-06-26T00:47:24;16.88;;;13.55;;
23642;SDS011;11998;55.788;37.572;2023-06-26T00:48:25;18.20;;;14.93;;
23642;SDS011;11998;55.788;37.572;2023-06-26T00:49:26;16.33;;;14.60;;
23642;SDS011;11998;55.788;37.572;2023-06-26T00:50:28;20.08;;;15.35;;
23642;SDS011;11998;55.788;37.572;2023-06-26T00:51:29;17.80;;;15.75;;
23642;SDS011;11998;55.788;37.572;2023-06-26T00:52:31;17.77;;;15.13;;
23642;SDS011;11998;55.788;37.572;2023-06-26T00:53:32;20.20;;;16.08;;
23642;SDS011;11998;55.788;37.572;2023-06-26T00:54:33;17.00;;;15.20;;
23642;SDS011;11998;55.788;37.572;2023-06-26T00:55:33;18.30;;;16.15;;
23642;SDS011;11998;55.788;37.572;2023-06-26T00:56:34;17.67;;;15.95;;
23642;SDS011;11998;55.788;37.572;2023-06-26T00:57:35;18.70;;;16.60;;
23642;SDS011;11998;55.788;37.572;2023-06-26T00:58:36;23.63;;;17.70;;
23642;SDS011;11998;55.788;37.572;2023-06-26T00:59:36;20.70;;;16.55;;
23642;SDS011;11998;55.788;37.572;2023-06-26T01:00:38;20.02;;;16.77;;
23642;SDS011;11998;55.788;37.572;2023-06-26T01:01:39;20.00;;;16.70;;
23642;SDS011;11998;55.788;37.572;2023-06-26T01:02:39;19.70;;;16.83;;
23642;SDS011;11998;55.788;37.572;2023-06-26T01:03:40;20.80;;;17.42;;
23642;SDS011;11998;55.788;37.572;2023-06-26T01:04:40;23.00;;;17.63;;
23642;SDS011;11998;55.788;37.572;2023-06-26T01:05:47;21.98;;;18.05;;
23642;SDS011;11998;55.788;37.572;2023-06-26T01:06:49;27.15;;;20.38;;
23642;SDS011;11998;55.788;37.572;2023-06-26T01:07:52;26.70;;;19.77;;
23642;SDS011;11998;55.788;37.572;2023-06-26T01:08:54;25.13;;;20.88;;
23642;SDS011;11998;55.788;37.572;2023-06-26T01:09:55;23.73;;;17.98;;
23642;SDS011;11998;55.788;37.572;2023-06-26T01:10:56;27.23;;;20.27;;
23642;SDS011;11998;55.788;37.572;2023-06-26T01:11:58;24.73;;;18.88;;
23642;SDS011;11998;55.788;37.572;2023-06-26T01:12:59;26.88;;;20.40;;
23642;SDS011;11998;55.788;37.572;2023-06-26T01:13:59;28.67;;;21.67;;
23642;SDS011;11998;55.788;37.572;2023-06-26T01:15:01;27.90;;;19.35;;
23642;SDS011;11998;55.788;37.572;2023-06-26T01:16:02;34.58;;;24.65;;
23642;SDS011;11998;55.788;37.572;2023-06-26T01:17:04;32.33;;;25.25;;
23642;SDS011;11998;55.788;37.572;2023-06-26T01:18:07;32.53;;;22.63;;
23642;SDS011;11998;55.788;37.572;2023-06-26T01:19:09;29.55;;;21.85;;
23642;SDS011;11998;55.788;37.572;2023-06-26T01:20:13;30.45;;;23.38;;
23642;SDS011;11998;55.788;37.572;2023-06-26T01:21:16;26.48;;;22.08;;
23642;SDS011;11998;55.788;37.572;2023-06-26T01:22:19;39.60;;;23.33;;
23642;SDS011;11998;55.788;37.572;2023-06-26T01:27:07;35.40;;;23.98;;
23642;SDS011;11998;55.788;37.572;2023-06-26T01:28:08;33.10;;;24.08;;
23642;SDS011;11998;55.788;37.572;2023-06-26T01:29:10;31.75;;;23.88;;
23642;SDS011;11998;55.788;37.572;2023-06-26T01:30:13;35.47;;;24.13;;
23642;SDS011;11998;55.788;37.572;2023-06-26T01:31:15;31.80;;;24.35;;
23642;SDS011;11998;55.788;37.572;2023-06-26T01:32:18;35.45;;;24.58;;
23642;SDS011;11998;55.788;37.572;2023-06-26T01:33:19;28.25;;;23.00;;
23642;SDS011;11998;55.788;37.572;2023-06-26T01:34:19;32.78;;;25.17;;
23642;SDS011;11998;55.788;37.572;2023-06-26T01:35:20;33.03;;;24.55;;
23642;SDS011;11998;55.788;37.572;2023-06-26T01:36:21;36.55;;;24.13;;
23642;SDS011;11998;55.788;37.572;2023-06-26T01:37:22;33.83;;;24.50;;
23642;SDS011;11998;55.788;37.572;2023-06-26T01:38:23;32.75;;;24.13;;
23642;SDS011;11998;55.788;37.572;2023-06-26T01:39:24;35.88;;;24.98;;
23642;SDS011;11998;55.788;37.572;2023-06-26T01:40:24;30.33;;;24.05;;
23642;SDS011;11998;55.788;37.572;2023-06-26T01:41:25;30.20;;;23.88;;
23642;SDS011;11998;55.788;37.572;2023-06-26T01:42:26;36.83;;;25.60;;
23642;SDS011;11998;55.788;37.572;2023-06-26T01:43:36;30.85;;;23.75;;
23642;SDS011;11998;55.788;37.572;2023-06-26T01:44:50;33.25;;;25.17;;
23642;SDS011;11998;55.788;37.572;2023-06-26T01:45:54;32.22;;;24.20;;
23642;SDS011;11998;55.788;37.572;2023-06-26T01:47:01;33.63;;;24.88;;
23642;SDS011;11998;55.788;37.572;2023-06-26T01:48:03;33.92;;;24.42;;
23642;SDS011;11998;55.788;37.572;2023-06-26T01:50:43;32.85;;;26.27;;
23642;SDS011;11998;55.788;37.572;2023-06-26T01:51:55;31.92;;;25.30;;
23642;SDS011;11998;55.788;37.572;2023-06-26T01:53:10;35.80;;;25.65;;
23642;SDS011;11998;55.788;37.572;2023-06-26T01:54:17;32.38;;;24.83;;
23642;SDS011;11998;55.788;37.572;2023-06-26T01:56:29;35.03;;;26.70;;
23642;SDS011;11998;55.788;37.572;2023-06-26T01:57:30;33.08;;;25.42;;
23642;SDS011;11998;55.788;37.572;2023-06-26T01:58:31;34.13;;;25.98;;
23642;SDS011;11998;55.788;37.572;2023-06-26T01:59:33;43.03;;;25.80;;
23642;SDS011;11998;55.788;37.572;2023-06-26T02:00:34;35.20;;;24.45;;
23642;SDS011;11998;55.788;37.572;2023-06-26T02:01:36;33.97;;;25.23;;
23642;SDS011;11998;55.788;37.572;2023-06-26T02:02:37;34.17;;;25.55;;
23642;SDS011;11998;55.788;37.572;2023-06-26T02:03:37;35.75;;;25.92;;
23642;SDS011;11998;55.788;37.572;2023-06-26T02:04:38;34.13;;;25.98;;
23642;SDS011;11998;55.788;37.572;2023-06-26T02:05:39;37.33;;;27.02;;
23642;SDS011;11998;55.788;37.572;2023-06-26T02:06:40;38.75;;;26.85;;
23642;SDS011;11998;55.788;37.572;2023-06-26T02:07:41;34.42;;;27.67;;
23642;SDS011;11998;55.788;37.572;2023-06-26T02:08:42;37.00;;;26.77;;
23642;SDS011;11998;55.788;37.572;2023-06-26T02:09:43;36.28;;;26.75;;
23642;SDS011;11998;55.788;37.572;2023-06-26T02:10:43;38.83;;;26.00;;
23642;SDS011;11998;55.788;37.572;2023-06-26T02:11:44;37.50;;;28.23;;
23642;SDS011;11998;55.788;37.572;2023-06-26T02:12:44;37.33;;;27.25;;
23642;SDS011;11998;55.788;37.572;2023-06-26T02:13:45;39.72;;;27.35;;
23642;SDS011;11998;55.788;37.572;2023-06-26T02:14:46;38.38;;;27.85;;
23642;SDS011;11998;55.788;37.572;2023-06-26T02:15:46;42.08;;;27.25;;
23642;SDS011;11998;55.788;37.572;2023-06-26T02:16:47;35.85;;;26.08;;
23642;SDS011;11998;55.788;37.572;2023-06-26T02:17:47;37.95;;;25.80;;
23642;SDS011;11998;55.788;37.572;2023-06-26T02:18:48;39.22;;;25.67;;
23642;SDS011;11998;55.788;37.572;2023-06-26T02:19:48;36.25;;;24.90;;
23642;SDS011;11998;55.788;37.572;2023-06-26T02:20:49;33.85;;;24.83;;
23642;SDS011;11998;55.788;37.572;2023-06-26T02:21:50;34.00;;;25.83;;
23642;SDS011;11998;55.788;37.572;2023-06-26T02:22:51;36.88;;;25.20;;
23642;SDS011;11998;55.788;37.572;2023-06-26T02:23:51;38.30;;;25.92;;
23642;SDS011;11998;55.788;37.572;2023-06-26T02:24:52;37.97;;;27.50;;
23642;SDS011;11998;55.788;37.572;2023-06-26T02:25:52;37.75;;;26.63;;
23642;SDS011;11998;55.788;37.572;2023-06-26T02:26:53;33.55;;;25.95;;
23642;SDS011;11998;55.788;37.572;2023-06-26T02:27:53;37.33;;;26.23;;
23642;SDS011;11998;55.788;37.572;2023-06-26T02:28:55;49.35;;;26.38;;
23642;SDS011;11998;55.788;37.572;2023-06-26T02:29:55;41.13;;;26.17;;
23642;SDS011;11998;55.788;37.572;2023-06-26T02:30:57;38.17;;;26.65;;
23642;SDS011;11998;55.788;37.572;2023-06-26T02:31:58;40.50;;;27.10;;
23642;SDS011;11998;55.788;37.572;2023-06-26T02:32:58;38.95;;;27.05;;
23642;SDS011;11998;55.788;37.572;2023-06-26T02:33:59;38.92;;;26.95;;
23642;SDS011;11998;55.788;37.572;2023-06-26T02:35:00;33.80;;;25.65;;
23642;SDS011;11998;55.788;37.572;2023-06-26T02:36:01;34.42;;;26.35;;
23642;SDS011;11998;55.788;37.572;2023-06-26T02:37:02;36.35;;;26.30;;
23642;SDS011;11998;55.788;37.572;2023-06-26T02:38:05;34.45;;;25.88;;
23642;SDS011;11998;55.788;37.572;2023-06-26T02:39:05;31.98;;;25.60;;
23642;SDS011;11998;55.788;37.572;2023-06-26T02:40:06;35.38;;;25.70;;
23642;SDS011;11998;55.788;37.572;2023-06-26T02:41:08;35.70;;;25.45;;
23642;SDS011;11998;55.788;37.572;2023-06-26T02:42:08;31.55;;;25.80;;
23642;SDS011;11998;55.788;37.572;2023-06-26T02:43:09;34.58;;;25.38;;
23642;SDS011;11998;55.788;37.572;2023-06-26T02:44:09;32.05;;;25.00;;
23642;SDS011;11998;55.788;37.572;2023-06-26T02:45:12;36.47;;;25.58;;
23642;SDS011;11998;55.788;37.572;2023-06-26T02:46:12;33.95;;;25.55;;
23642;SDS011;11998;55.788;37.572;2023-06-26T02:47:13;33.70;;;26.00;;
23642;SDS011;11998;55.788;37.572;2023-06-26T02:48:14;35.00;;;25.05;;
23642;SDS011;11998;55.788;37.572;2023-06-26T02:49:15;40.17;;;26.45;;
23642;SDS011;11998;55.788;37.572;2023-06-26T02:50:16;34.47;;;25.40;;
23642;SDS011;11998;55.788;37.572;2023-06-26T02:51:19;34.20;;;25.70;;
23642;SDS011;11998;55.788;37.572;2023-06-26T02:52:20;34.15;;;25.00;;
23642;SDS011;11998;55.788;37.572;2023-06-26T02:53:21;35.20;;;25.27;;
23642;SDS011;11998;55.788;37.572;2023-06-26T02:54:22;32.25;;;24.27;;
23642;SDS011;11998;55.788;37.572;2023-06-26T02:55:22;35.55;;;23.77;;
23642;SDS011;11998;55.788;37.572;2023-06-26T02:56:23;35.33;;;26.65;;
23642;SDS011;11998;55.788;37.572;2023-06-26T02:57:23;35.30;;;26.50;;
23642;SDS011;11998;55.788;37.572;2023-06-26T02:58:24;34.17;;;25.80;;
23642;SDS011;11998;55.788;37.572;2023-06-26T02:59:25;33.20;;;25.80;;
23642;SDS011;11998;55.788;37.572;2023-06-26T03:00:26;33.60;;;25.63;;
23642;SDS011;11998;55.788;37.572;2023-06-26T03:01:29;35.47;;;25.63;;
23642;SDS011;11998;55.788;37.572;2023-06-26T03:02:30;37.78;;;25.95;;
23642;SDS011;11998;55.788;37.572;2023-06-26T03:03:30;30.98;;;24.52;;
23642;SDS011;11998;55.788;37.572;2023-06-26T03:04:40;35.47;;;25.55;;
23642;SDS011;11998;55.788;37.572;2023-06-26T03:05:41;31.98;;;24.42;;
23642;SDS011;11998;55.788;37.572;2023-06-26T03:06:42;34.67;;;23.92;;
23642;SDS011;11998;55.788;37.572;2023-06-26T03:07:42;33.95;;;24.35;;
23642;SDS011;11998;55.788;37.572;2023-06-26T03:08:45;32.08;;;23.98;;
23642;SDS011;11998;55.788;37.572;2023-06-26T03:09:46;31.27;;;24.05;;
23642;SDS011;11998;55.788;37.572;2023-06-26T03:10:47;32.28;;;22.75;;
23642;SDS011;11998;55.788;37.572;2023-06-26T03:11:47;31.88;;;23.10;;
23642;SDS011;11998;55.788;37.572;2023-06-26T03:12:48;28.30;;;23.58;;
23642;SDS011;11998;55.788;37.572;2023-06-26T03:13:49;28.63;;;22.63;;
23642;SDS011;11998;55.788;37.572;2023-06-26T03:14:49;29.38;;;22.67;;
23642;SDS011;11998;55.788;37.572;2023-06-26T03:15:50;29.30;;;22.60;;
23642;SDS011;11998;55.788;37.572;2023-06-26T03:16:53;29.35;;;21.95;;
23642;SDS011;11998;55.788;37.572;2023-06-26T03:17:57;29.02;;;22.52;;
23642;SDS011;11998;55.788;37.572;2023-06-26T03:18:58;32.58;;;22.20;;
23642;SDS011;11998;55.788;37.572;2023-06-26T03:19:59;31.30;;;22.65;;
23642;SDS011;11998;55.788;37.572;2023-06-26T03:20:59;26.90;;;21.98;;
23642;SDS011;11998;55.788;37.572;2023-06-26T03:22:00;27.88;;;21.58;;
23642;SDS011;11998;55.788;37.572;2023-06-26T03:23:01;25.48;;;21.25;;
23642;SDS011;11998;55.788;37.572;2023-06-26T03:24:01;27.75;;;23.20;;
23642;SDS011;11998;55.788;37.572;2023-06-26T03:25:02;28.45;;;22.92;;
23642;SDS011;11998;55.788;37.572;2023-06-26T03:26:03;33.22;;;22.48;;
23642;SDS011;11998;55.788;37.572;2023-06-26T03:27:04;25.83;;;22.25;;
23642;SDS011;11998;55.788;37.572;2023-06-26T03:28:05;29.85;;;21.38;;
23642;SDS011;11998;55.788;37.572;2023-06-26T03:29:06;29.70;;;22.50;;
23642;SDS011;11998;55.788;37.572;2023-06-26T03:30:07;30.67;;;22.38;;
23642;SDS011;11998;55.788;37.572;2023-06-26T03:31:07;26.10;;;21.40;;
23642;SDS011;11998;55.788;37.572;2023-06-26T03:32:08;26.38;;;22.00;;
23642;SDS011;11998;55.788;37.572;2023-06-26T03:33:09;28.80;;;21.83;;
23642;SDS011;11998;55.788;37.572;2023-06-26T03:34:09;28.40;;;22.35;;
23642;SDS011;11998;55.788;37.572;2023-06-26T03:35:10;28.20;;;22.20;;
23642;SDS011;11998;55.788;37.572;2023-06-26T03:36:11;27.40;;;22.27;;
23642;SDS011;11998;55.788;37.572;2023-06-26T03:37:11;28.00;;;21.60;;
23642;SDS011;11998;55.788;37.572;2023-06-26T03:38:12;31.48;;;22.30;;
23642;SDS011;11998;55.788;37.572;2023-06-26T03:39:12;30.40;;;21.70;;
23642;SDS011;11998;55.788;37.572;2023-06-26T03:40:13;32.50;;;21.88;;
23642;SDS011;11998;55.788;37.572;2023-06-26T03:41:13;25.08;;;20.60;;
23642;SDS011;11998;55.788;37.572;2023-06-26T03:42:14;28.35;;;21.08;;
23642;SDS011;11998;55.788;37.572;2023-06-26T03:43:15;28.73;;;21.23;;
23642;SDS011;11998;55.788;37.572;2023-06-26T03:44:18;26.20;;;20.23;;
23642;SDS011;11998;55.788;37.572;2023-06-26T03:45:18;25.15;;;20.85;;
23642;SDS011;11998;55.788;37.572;2023-06-26T03:46:19;30.25;;;20.75;;
23642;SDS011;11998;55.788;37.572;2023-06-26T03:47:20;25.38;;;20.30;;
23642;SDS011;11998;55.788;37.572;2023-06-26T03:48:21;26.58;;;20.48;;
23642;SDS011;11998;55.788;37.572;2023-06-26T03:49:21;29.17;;;21.17;;
23642;SDS011;11998;55.788;37.572;2023-06-26T03:50:22;30.92;;;19.90;;
23642;SDS011;11998;55.788;37.572;2023-06-26T03:51:22;23.48;;;19.85;;
23642;SDS011;11998;55.788;37.572;2023-06-26T03:52:23;25.92;;;20.85;;
23642;SDS011;11998;55.788;37.572;2023-06-26T03:53:24;22.75;;;20.33;;
23642;SDS011;11998;55.788;37.572;2023-06-26T03:54:24;25.92;;;18.67;;
23642;SDS011;11998;55.788;37.572;2023-06-26T03:55:26;28.23;;;20.00;;
23642;SDS011;11998;55.788;37.572;2023-06-26T03:56:26;26.10;;;20.15;;
23642;SDS011;11998;55.788;37.572;2023-06-26T03:57:27;27.70;;;19.23;;
23642;SDS011;11998;55.788;37.572;2023-06-26T03:58:27;32.00;;;19.50;;
23642;SDS011;11998;55.788;37.572;2023-06-26T03:59:28;23.45;;;19.08;;
23642;SDS011;11998;55.788;37.572;2023-06-26T04:00:28;21.77;;;17.92;;
23642;SDS011;11998;55.788;37.572;2023-06-26T04:01:29;22.17;;;19.35;;
23642;SDS011;11998;55.788;37.572;2023-06-26T04:02:29;24.23;;;19.40;;
23642;SDS011;11998;55.788;37.572;2023-06-26T04:03:30;23.02;;;19.02;;
23642;SDS011;11998;55.788;37.572;2023-06-26T04:04:31;22.17;;;18.80;;
23642;SDS011;11998;55.788;37.572;2023-06-26T04:05:32;24.13;;;18.40;;
23642;SDS011;11998;55.788;37.572;2023-06-26T04:06:32;21.20;;;18.65;;
23642;SDS011;11998;55.788;37.572;2023-06-26T04:07:33;23.08;;;18.73;;
23642;SDS011;11998;55.788;37.572;2023-06-26T04:08:35;22.65;;;18.80;;
23642;SDS011;11998;55.788;37.572;2023-06-26T04:09:36;24.25;;;17.92;;
23642;SDS011;11998;55.788;37.572;2023-06-26T04:10:37;22.80;;;17.75;;
23642;SDS011;11998;55.788;37.572;2023-06-26T04:11:38;28.15;;;18.23;;
23642;SDS011;11998;55.788;37.572;2023-06-26T04:12:38;21.67;;;18.60;;
23642;SDS011;11998;55.788;37.572;2023-06-26T04:13:39;20.52;;;18.42;;
23642;SDS011;11998;55.788;37.572;2023-06-26T04:14:39;23.63;;;19.17;;
23642;SDS011;11998;55.788;37.572;2023-06-26T04:15:40;26.15;;;20.92;;
23642;SDS011;11998;55.788;37.572;2023-06-26T04:16:40;28.63;;;18.83;;
23642;SDS011;11998;55.788;37.572;2023-06-26T04:17:41;19.80;;;17.42;;
23642;SDS011;11998;55.788;37.572;2023-06-26T04:18:41;21.13;;;18.33;;
23642;SDS011;11998;55.788;37.572;2023-06-26T04:19:42;26.73;;;22.45;;
23642;SDS011;11998;55.788;37.572;2023-06-26T04:22:04;22.38;;;17.92;;
23642;SDS011;11998;55.788;37.572;2023-06-26T04:23:05;22.75;;;17.23;;
23642;SDS011;11998;55.788;37.572;2023-06-26T04:24:05;20.27;;;17.10;;
23642;SDS011;11998;55.788;37.572;2023-06-26T04:25:06;19.92;;;17.67;;
23642;SDS011;11998;55.788;37.572;2023-06-26T04:26:07;23.73;;;21.23;;
23642;SDS011;11998;55.788;37.572;2023-06-26T04:27:08;25.13;;;18.00;;
23642;SDS011;11998;55.788;37.572;2023-06-26T04:28:09;21.25;;;16.77;;
23642;SDS011;11998;55.788;37.572;2023-06-26T04:29:11;21.65;;;17.65;;
23642;SDS011;11998;55.788;37.572;2023-06-26T04:30:12;19.33;;;15.50;;
23642;SDS011;11998;55.788;37.572;2023-06-26T04:31:13;16.35;;;14.63;;
23642;SDS011;11998;55.788;37.572;2023-06-26T04:32:14;23.52;;;18.17;;
23642;SDS011;11998;55.788;37.572;2023-06-26T04:33:14;17.65;;;15.77;;
23642;SDS011;11998;55.788;37.572;2023-06-26T04:34:15;19.05;;;16.05;;
23642;SDS011;11998;55.788;37.572;2023-06-26T04:35:16;19.90;;;16.40;;
23642;SDS011;11998;55.788;37.572;2023-06-26T04:36:17;18.77;;;16.95;;
23642;SDS011;11998;55.788;37.572;2023-06-26T04:37:19;21.17;;;17.27;;
23642;SDS011;11998;55.788;37.572;2023-06-26T04:38:20;20.13;;;15.88;;
23642;SDS011;11998;55.788;37.572;2023-06-26T04:39:21;19.67;;;15.65;;
23642;SDS011;11998;55.788;37.572;2023-06-26T04:40:22;18.45;;;16.50;;
23642;SDS011;11998;55.788;37.572;2023-06-26T04:41:22;18.10;;;15.60;;
23642;SDS011;11998;55.788;37.572;2023-06-26T04:42:23;18.65;;;15.55;;
23642;SDS011;11998;55.788;37.572;2023-06-26T04:43:24;20.17;;;15.25;;
23642;SDS011;11998;55.788;37.572;2023-06-26T04:44:24;16.25;;;14.65;;
23642;SDS011;11998;55.788;37.572;2023-06-26T04:45:25;16.88;;;15.00;;
23642;SDS011;11998;55.788;37.572;2023-06-26T04:46:25;20.17;;;15.48;;
23642;SDS011;11998;55.788;37.572;2023-06-26T04:47:27;15.52;;;13.75;;
23642;SDS011;11998;55.788;37.572;2023-06-26T04:48:28;15.05;;;13.40;;
23642;SDS011;11998;55.788;37.572;2023-06-26T04:49:31;15.10;;;13.35;;
23642;SDS011;11998;55.788;37.572;2023-06-26T04:50:32;14.82;;;13.10;;
23642;SDS011;11998;55.788;37.572;2023-06-26T04:51:33;15.77;;;13.02;;
23642;SDS011;11998;55.788;37.572;2023-06-26T04:52:40;16.42;;;12.18;;
23642;SDS011;11998;55.788;37.572;2023-06-26T04:53:40;11.77;;;10.60;;
23642;SDS011;11998;55.788;37.572;2023-06-26T04:54:41;11.98;;;10.77;;
23642;SDS011;11998;55.788;37.572;2023-06-26T04:55:42;11.73;;;10.50;;
23642;SDS011;11998;55.788;37.572;2023-06-26T04:56:43;15.32;;;11.40;;
23642;SDS011;11998;55.788;37.572;2023-06-26T04:57:47;13.90;;;11.70;;
23642;SDS011;11998;55.788;37.572;2023-06-26T04:58:47;11.15;;;10.02;;
23642;SDS011;11998;55.788;37.572;2023-06-26T04:59:48;12.35;;;10.57;;
23642;SDS011;11998;55.788;37.572;2023-06-26T05:00:49;12.05;;;10.15;;
23642;SDS011;11998;55.788;37.572;2023-06-26T05:01:49;15.27;;;10.75;;
23642;SDS011;11998;55.788;37.572;2023-06-26T05:02:50;10.93;;;9.98;;
23642;SDS011;11998;55.788;37.572;2023-06-26T05:04:00;10.68;;;9.65;;
23642;SDS011;11998;55.788;37.572;2023-06-26T05:05:01;10.65;;;9.57;;
23642;SDS011;11998;55.788;37.572;2023-06-26T05:06:02;9.93;;;8.73;;
23642;SDS011;11998;55.788;37.572;2023-06-26T05:07:02;11.02;;;10.07;;
23642;SDS011;11998;55.788;37.572;2023-06-26T05:08:13;11.68;;;10.15;;
23642;SDS011;11998;55.788;37.572;2023-06-26T05:09:23;10.05;;;9.10;;
23642;SDS011;11998;55.788;37.572;2023-06-26T05:10:24;10.27;;;9.48;;
23642;SDS011;11998;55.788;37.572;2023-06-26T05:11:25;11.68;;;9.73;;
23642;SDS011;11998;55.788;37.572;2023-06-26T05:12:26;10.32;;;9.38;;
23642;SDS011;11998;55.788;37.572;2023-06-26T05:13:26;12.30;;;10.43;;
23642;SDS011;11998;55.788;37.572;2023-06-26T05:14:27;11.27;;;10.02;;
23642;SDS011;11998;55.788;37.572;2023-06-26T05:15:27;11.27;;;10.27;;
23642;SDS011;11998;55.788;37.572;2023-06-26T05:16:28;20.83;;;10.15;;
23642;SDS011;11998;55.788;37.572;2023-06-26T05:17:29;12.25;;;9.85;;
23642;SDS011;11998;55.788;37.572;2023-06-26T05:18:29;12.30;;;9.93;;
23642;SDS011;11998;55.788;37.572;2023-06-26T05:19:30;10.98;;;9.95;;
23642;SDS011;11998;55.788;37.572;2023-06-26T05:20:30;13.20;;;9.57;;
23642;SDS011;11998;55.788;37.572;2023-06-26T05:21:31;12.70;;;9.38;;
23642;SDS011;11998;55.788;37.572;2023-06-26T05:22:32;14.57;;;12.30;;
23642;SDS011;11998;55.788;37.572;2023-06-26T05:23:34;13.25;;;11.63;;
23642;SDS011;11998;55.788;37.572;2023-06-26T05:24:35;16.65;;;10.15;;
23642;SDS011;11998;55.788;37.572;2023-06-26T05:25:36;11.27;;;10.02;;
23642;SDS011;11998;55.788;37.572;2023-06-26T05:26:37;15.80;;;11.23;;
23642;SDS011;11998;55.788;37.572;2023-06-26T05:27:38;10.63;;;9.63;;
23642;SDS011;11998;55.788;37.572;2023-06-26T05:28:39;15.10;;;10.07;;
23642;SDS011;11998;55.788;37.572;2023-06-26T05:29:40;11.18;;;9.57;;
23642;SDS011;11998;55.788;37.572;2023-06-26T05:30:41;9.18;;;8.27;;
23642;SDS011;11998;55.788;37.572;2023-06-26T05:31:41;9.07;;;8.27;;
23642;SDS011;11998;55.788;37.572;2023-06-26T05:32:45;8.75;;;8.07;;
23642;SDS011;11998;55.788;37.572;2023-06-26T05:33:47;8.68;;;7.85;;
23642;SDS011;11998;55.788;37.572;2023-06-26T05:34:49;8.70;;;8.00;;
23642;SDS011;11998;55.788;37.572;2023-06-26T05:35:52;10.23;;;8.60;;
23642;SDS011;11998;55.788;37.572;2023-06-26T05:36:53;8.75;;;8.00;;
23642;SDS011;11998;55.788;37.572;2023-06-26T05:37:58;8.93;;;8.07;;
23642;SDS011;11998;55.788;37.572;2023-06-26T05:38:59;9.88;;;8.88;;
23642;SDS011;11998;55.788;37.572;2023-06-26T05:40:00;9.77;;;8.10;;
23642;SDS011;11998;55.788;37.572;2023-06-26T05:41:01;8.57;;;7.72;;
23642;SDS011;11998;55.788;37.572;2023-06-26T05:42:02;10.50;;;8.23;;
23642;SDS011;11998;55.788;37.572;2023-06-26T05:43:03;7.97;;;7.28;;
23642;SDS011;11998;55.788;37.572;2023-06-26T05:44:04;8.95;;;8.05;;
23642;SDS011;11998;55.788;37.572;2023-06-26T05:45:04;7.90;;;7.20;;
23642;SDS011;11998;55.788;37.572;2023-06-26T05:46:05;8.63;;;7.80;;
23642;SDS011;11998;55.788;37.572;2023-06-26T05:47:06;8.57;;;7.53;;
23642;SDS011;11998;55.788;37.572;2023-06-26T05:48:07;7.85;;;6.97;;
23642;SDS011;11998;55.788;37.572;2023-06-26T05:49:07;8.05;;;7.15;;
23642;SDS011;11998;55.788;37.572;2023-06-26T05:50:09;7.38;;;6.88;;
23642;SDS011;11998;55.788;37.572;2023-06-26T05:51:10;7.72;;;7.05;;
23642;SDS011;11998;55.788;37.572;2023-06-26T05:52:11;7.80;;;7.20;;
23642;SDS011;11998;55.788;37.572;2023-06-26T05:53:12;8.15;;;7.47;;
23642;SDS011;11998;55.788;37.572;2023-06-26T05:54:13;7.82;;;7.22;;
23642;SDS011;11998;55.788;37.572;2023-06-26T05:55:14;9.32;;;6.85;;
23642;SDS011;11998;55.788;37.572;2023-06-26T05:56:15;8.52;;;7.13;;
23642;SDS011;11998;55.788;37.572;2023-06-26T05:57:16;8.57;;;7.50;;
23642;SDS011;11998;55.788;37.572;2023-06-26T05:58:18;11.98;;;6.97;;
23642;SDS011;11998;55.788;37.572;2023-06-26T05:59:20;8.27;;;6.40;;
23642;SDS011;11998;55.788;37.572;2023-06-26T06:00:22;8.75;;;6.93;;
23642;SDS011;11998;55.788;37.572;2023-06-26T06:01:23;8.30;;;6.90;;
23642;SDS011;11998;55.788;37.572;2023-06-26T06:02:24;7.00;;;6.40;;